This is the latest recevied weather packets stored in our database for station/object F5IOR. If no packets are shown the sender has not sent any weather packets the latest 10 day(s).
| Time | Temp. | Humidity | Pressure | Rain* | Wind** | Luminosity | Snow |
|---|---|---|---|---|---|---|---|
| 1787733137 | 21.67° C | 76% | 987.9 hPa | 0 mm | - | - | - |
| 1787732657 | 21.67° C | 76% | 987.9 hPa | 0 mm | - | - | - |
| 1787732177 | 21.67° C | 76% | 987.9 hPa | 0 mm | - | - | - |
| 1787731697 | 20.56° C | 80% | 987.9 hPa | 0 mm | - | - | - |
| 1787731217 | 20.56° C | 80% | 987.9 hPa | 0 mm | - | - | - |
| 1787730977 | 20° C | 84% | 987.9 hPa | 0 mm | - | - | - |
| 1787730737 | 20° C | 84% | 987.9 hPa | 0 mm | - | - | - |
| 1787730497 | 20° C | 84% | 987.9 hPa | 0 mm | - | - | - |
| 1787730257 | 20° C | 84% | 987.9 hPa | 0 mm | - | - | - |
| 1787730136 | 20° C | 84% | 987.9 hPa | 0 mm | - | - | - |
| 1787730017 | 20° C | 84% | 987.9 hPa | 0 mm | - | - | - |
| 1787729897 | 20° C | 84% | 987.9 hPa | 0 mm | - | - | - |
| 1787729777 | 20° C | 84% | 987.9 hPa | 0 mm | - | - | - |
| 1787729717 | 20° C | 84% | 987.9 hPa | 0 mm | - | - | - |
| 1787729657 | 20° C | 84% | 987.9 hPa | 0 mm | - | - | - |
| 1787729597 | 20° C | 84% | 987.9 hPa | 0 mm | - | - | - |
| 1787684787 | 23.33° C | 64% | 985.5 hPa | 0.25 mm | - | - | - |
| 1787682987 | 23.33° C | 62% | 985.3 hPa | 0.25 mm | - | - | - |
| 1787681187 | 24.44° C | 60% | 984.9 hPa | 0.25 mm | - | - | - |
| 1787679387 | 24.44° C | 60% | 984.6 hPa | 0.25 mm | - | - | - |
| 1787677587 | 25.56° C | 58% | 984.1 hPa | 0.25 mm | - | - | - |
| 1787675787 | 25.56° C | 55% | 984 hPa | 0.25 mm | - | - | - |
| 1787673987 | 26.11° C | 53% | 984.2 hPa | 0.25 mm | - | - | - |
| 1787672187 | 26.11° C | 53% | 984.2 hPa | 0.25 mm | - | - | - |
| 1787670387 | 26.11° C | 53% | 984.5 hPa | 0.25 mm | - | - | - |
* Rain latest hour (hover to see other rain measurements)
** Current wind speed in m/s (hover to see current wind gust speed)